Kelham Island, United Kingdom
Current Conditions -  °F | °C
As of 9:20 AM on Wednesday 28 Jan 2015 (Local Time) from EGCN Reporting Station
Light Rain Light Rain  
Wind Chill: 41°   Ceiling: 3500
Heat Index: 48°   Visibility: 4mi
Dew Point: 43°   Wind: 20mph
Humidity: 82%   Direction: 240°WSW
Pressure: 29.38"   Gusts: 35mph
Location:  53.38°N, 1.47°W
Report Text: EGCN 280920Z 24017G30KT 7000 -RA FEW013 SCT029 BKN035 09/06 Q0995 RERA
Loading
Personal Weather Stations






























Interactive Weather Map New forecast layout! Learn more

10-Day Weather Forecast

Advertisements
Track Severe Weather on mobile